South Wellfleet, MA

1:00 PM EST on December 09, 2016 (GMT -0500)
Old Wharf Rd, South Wellfleet | | Change Station

Elev 39 ft 41.90 °N, 69.99 °W | Updated 20 seconds ago

Partly Cloudy
Partly Cloudy
35.3 °F
Feels Like 30 °F
N
6.0
Wind Variable Wind from NW
Gusts 21.0 mph

Today
High -- | Low -- °F
--% Chance of Precip.
Yesterday
High -- | Low -- °F
Precip. -- in
Pressure 29.94 in
Visibility 10.0 miles
Clouds Overcast 4700 ft
Windchill 30 °F
Dew Point 22 °F
Humidity 58%
Rainfall 0.02 in
Snow Depth Not available.
6:56 AM 4:08 PM
Waxing Gibbous, 76% visible
METAR KCQX 091752Z AUTO 29007G18KT 260V320 10SM OVC047 03/M08 A2994 RMK AO2 SLP139 T00281078 10039 20000 55006
Pressure 29.94 in
Visibility 10.0 miles
Clouds Overcast 4700 ft
Windchill 30 °F
Dew Point 22 °F
Humidity 58%
Rainfall 0.02 in
Snow Depth Not available.
6:56 AM 4:08 PM
Waxing Gibbous, 76% visible
METAR KCQX 091752Z AUTO 29007G18KT 260V320 10SM OVC047 03/M08 A2994 RMK AO2 SLP139 T00281078 10039 20000 55006

10-Day Weather Forecast

Almanac

Astronomy

Dec. 09, 2016 Rise Set
Actual Time
Civil Twilight
Nautical Twilight
Astronomical Twilight
Moon
Length of Visible Light
Length of Day
Tomorrow will be .
, % of the Moon is Illuminated

Today's Extremes

State Highs State Lows

Community

WunderPhotos

Upload Photos

1,956,499 photos uploaded!

WunderBlog® & News

Nearby

Air Quality

  Air Quality AQ Index Pollutant
Not available.

Snow Depth

Station Depth Elevation

Earthquake Activity

City Distance Mag. Time & Date
Minimum magnitude displayed is 2.5.

Coastal Water Temperatures

Place Temperature

Stations

Nearby Weather Stations

Station Location Temp. Windchill Dew Point Humidity Wind Precip. Elev Updated Type
                   

Watches & Warnings

There are currently no watches in effect.